sensor_id;sensor_type;location;lat;lon;timestamp;pressure;altitude;pressure_sealevel;temperature;humidity
20752;BME280;10536;51.582;5.016;2022-09-29T00:03:28;99994.44;;;9.71;100.00
20752;BME280;10536;51.582;5.016;2022-09-29T00:08:30;100005.38;;;9.43;100.00
20752;BME280;10536;51.582;5.016;2022-09-29T00:13:30;99999.47;;;9.37;100.00
20752;BME280;10536;51.582;5.016;2022-09-29T00:18:32;100005.44;;;9.40;100.00
20752;BME280;10536;51.582;5.016;2022-09-29T00:23:34;100001.97;;;9.41;100.00
20752;BME280;10536;51.582;5.016;2022-09-29T00:28:36;99998.25;;;9.13;100.00
20752;BME280;10536;51.582;5.016;2022-09-29T00:33:38;99997.28;;;9.20;100.00
20752;BME280;10536;51.582;5.016;2022-09-29T00:38:39;99999.91;;;9.17;100.00
20752;BME280;10536;51.582;5.016;2022-09-29T00:48:49;99993.94;;;9.13;100.00
20752;BME280;10536;51.582;5.016;2022-09-29T00:53:50;99988.25;;;8.97;100.00
20752;BME280;10536;51.582;5.016;2022-09-29T00:58:59;99988.63;;;9.21;100.00
20752;BME280;10536;51.582;5.016;2022-09-29T01:04:04;99984.13;;;9.31;100.00
20752;BME280;10536;51.582;5.016;2022-09-29T01:09:14;99976.34;;;9.32;100.00
20752;BME280;10536;51.582;5.016;2022-09-29T01:14:15;99986.72;;;9.29;100.00
20752;BME280;10536;51.582;5.016;2022-09-29T01:19:19;99984.41;;;9.18;100.00
20752;BME280;10536;51.582;5.016;2022-09-29T01:40:17;99997.66;;;9.42;100.00
20752;BME280;10536;51.582;5.016;2022-09-29T01:45:31;99989.13;;;9.38;100.00
20752;BME280;10536;51.582;5.016;2022-09-29T01:50:37;99997.00;;;9.32;100.00
20752;BME280;10536;51.582;5.016;2022-09-29T01:55:47;99996.03;;;9.38;100.00
20752;BME280;10536;51.582;5.016;2022-09-29T02:00:53;99991.25;;;9.18;100.00
20752;BME280;10536;51.582;5.016;2022-09-29T02:05:58;99994.94;;;9.06;100.00
20752;BME280;10536;51.582;5.016;2022-09-29T02:11:07;99994.59;;;9.24;100.00
20752;BME280;10536;51.582;5.016;2022-09-29T02:16:10;99978.34;;;9.58;100.00
20752;BME280;10536;51.582;5.016;2022-09-29T02:21:14;99983.97;;;9.38;100.00
20752;BME280;10536;51.582;5.016;2022-09-29T02:26:15;99982.19;;;9.40;100.00
20752;BME280;10536;51.582;5.016;2022-09-29T02:31:18;99991.19;;;9.22;100.00
20752;BME280;10536;51.582;5.016;2022-09-29T02:36:35;99996.19;;;9.30;100.00
20752;BME280;10536;51.582;5.016;2022-09-29T02:41:49;99987.19;;;9.06;100.00
20752;BME280;10536;51.582;5.016;2022-09-29T02:52:21;99994.91;;;9.07;100.00
20752;BME280;10536;51.582;5.016;2022-09-29T02:57:46;99991.19;;;9.22;100.00
20752;BME280;10536;51.582;5.016;2022-09-29T03:02:49;99994.47;;;9.29;100.00
20752;BME280;10536;51.582;5.016;2022-09-29T03:07:49;99989.03;;;9.01;100.00
20752;BME280;10536;51.582;5.016;2022-09-29T03:12:49;99987.72;;;8.80;100.00
20752;BME280;10536;51.582;5.016;2022-09-29T03:17:54;99985.81;;;8.91;100.00
20752;BME280;10536;51.582;5.016;2022-09-29T03:22:56;99989.75;;;9.07;100.00
20752;BME280;10536;51.582;5.016;2022-09-29T03:27:57;99999.94;;;9.14;100.00
20752;BME280;10536;51.582;5.016;2022-09-29T03:32:57;99995.81;;;9.06;100.00
20752;BME280;10536;51.582;5.016;2022-09-29T03:37:59;99998.47;;;9.02;100.00
20752;BME280;10536;51.582;5.016;2022-09-29T03:42:59;99998.44;;;9.03;100.00
20752;BME280;10536;51.582;5.016;2022-09-29T03:48:00;100001.09;;;9.00;100.00
20752;BME280;10536;51.582;5.016;2022-09-29T03:53:00;100005.50;;;8.95;100.00
20752;BME280;10536;51.582;5.016;2022-09-29T03:58:01;100000.75;;;8.74;100.00
20752;BME280;10536;51.582;5.016;2022-09-29T04:03:01;100005.06;;;8.73;100.00
20752;BME280;10536;51.582;5.016;2022-09-29T04:08:03;100003.38;;;8.70;100.00
20752;BME280;10536;51.582;5.016;2022-09-29T04:13:04;100006.19;;;8.57;100.00
20752;BME280;10536;51.582;5.016;2022-09-29T04:18:05;100016.44;;;8.61;100.00
20752;BME280;10536;51.582;5.016;2022-09-29T04:23:06;100023.66;;;8.39;100.00
20752;BME280;10536;51.582;5.016;2022-09-29T04:28:06;100020.94;;;8.50;100.00
20752;BME280;10536;51.582;5.016;2022-09-29T04:33:07;100013.94;;;8.55;100.00
20752;BME280;10536;51.582;5.016;2022-09-29T04:38:08;100018.94;;;8.66;100.00
20752;BME280;10536;51.582;5.016;2022-09-29T04:43:09;100025.03;;;8.62;100.00
20752;BME280;10536;51.582;5.016;2022-09-29T04:48:09;100030.44;;;8.95;100.00
20752;BME280;10536;51.582;5.016;2022-09-29T04:53:10;100028.59;;;9.00;100.00
20752;BME280;10536;51.582;5.016;2022-09-29T04:58:11;100042.38;;;9.00;100.00
20752;BME280;10536;51.582;5.016;2022-09-29T05:03:11;100041.78;;;8.84;100.00
20752;BME280;10536;51.582;5.016;2022-09-29T05:08:12;100036.94;;;8.67;100.00
20752;BME280;10536;51.582;5.016;2022-09-29T05:13:12;100042.38;;;8.52;100.00
20752;BME280;10536;51.582;5.016;2022-09-29T05:18:13;100045.69;;;8.57;100.00
20752;BME280;10536;51.582;5.016;2022-09-29T05:23:13;100049.66;;;8.77;100.00
20752;BME280;10536;51.582;5.016;2022-09-29T05:28:14;100051.25;;;8.84;100.00
20752;BME280;10536;51.582;5.016;2022-09-29T05:33:14;100060.28;;;8.60;100.00
20752;BME280;10536;51.582;5.016;2022-09-29T05:38:15;100069.06;;;8.48;100.00
20752;BME280;10536;51.582;5.016;2022-09-29T05:43:15;100076.09;;;8.37;100.00
20752;BME280;10536;51.582;5.016;2022-09-29T05:48:16;100077.66;;;8.47;100.00
20752;BME280;10536;51.582;5.016;2022-09-29T05:53:17;100080.09;;;8.56;100.00
20752;BME280;10536;51.582;5.016;2022-09-29T05:58:18;100085.88;;;8.70;100.00
20752;BME280;10536;51.582;5.016;2022-09-29T06:03:18;100091.78;;;8.77;100.00
20752;BME280;10536;51.582;5.016;2022-09-29T06:08:18;100085.53;;;8.91;100.00
20752;BME280;10536;51.582;5.016;2022-09-29T06:13:19;100089.84;;;8.88;100.00
20752;BME280;10536;51.582;5.016;2022-09-29T06:18:20;100099.53;;;8.76;100.00
20752;BME280;10536;51.582;5.016;2022-09-29T06:23:21;100099.06;;;9.02;100.00
20752;BME280;10536;51.582;5.016;2022-09-29T06:28:21;100102.66;;;8.95;100.00
20752;BME280;10536;51.582;5.016;2022-09-29T06:33:22;100103.50;;;8.95;100.00
20752;BME280;10536;51.582;5.016;2022-09-29T06:38:22;100101.66;;;9.02;100.00
20752;BME280;10536;51.582;5.016;2022-09-29T06:43:23;100122.16;;;9.08;100.00
20752;BME280;10536;51.582;5.016;2022-09-29T06:48:24;100126.09;;;9.29;100.00
20752;BME280;10536;51.582;5.016;2022-09-29T06:53:24;100124.09;;;9.43;100.00
20752;BME280;10536;51.582;5.016;2022-09-29T06:58:25;100122.81;;;9.64;100.00
20752;BME280;10536;51.582;5.016;2022-09-29T07:03:26;100136.00;;;9.93;100.00
20752;BME280;10536;51.582;5.016;2022-09-29T07:08:27;100131.97;;;10.20;100.00
20752;BME280;10536;51.582;5.016;2022-09-29T07:13:28;100147.09;;;10.37;100.00
20752;BME280;10536;51.582;5.016;2022-09-29T07:18:29;100144.31;;;10.46;100.00
20752;BME280;10536;51.582;5.016;2022-09-29T07:23:30;100157.84;;;10.57;100.00
20752;BME280;10536;51.582;5.016;2022-09-29T07:28:31;100149.56;;;10.79;100.00
20752;BME280;10536;51.582;5.016;2022-09-29T07:33:32;100150.31;;;10.84;100.00
20752;BME280;10536;51.582;5.016;2022-09-29T07:38:32;100154.47;;;11.22;100.00
20752;BME280;10536;51.582;5.016;2022-09-29T07:43:33;100148.63;;;11.16;100.00
20752;BME280;10536;51.582;5.016;2022-09-29T07:48:35;100149.53;;;11.46;100.00
20752;BME280;10536;51.582;5.016;2022-09-29T07:53:36;100167.94;;;11.68;100.00
20752;BME280;10536;51.582;5.016;2022-09-29T07:58:37;100163.00;;;11.89;100.00
20752;BME280;10536;51.582;5.016;2022-09-29T08:03:39;100177.63;;;11.93;100.00
20752;BME280;10536;51.582;5.016;2022-09-29T08:08:41;100184.69;;;12.17;100.00
20752;BME280;10536;51.582;5.016;2022-09-29T08:13:49;100181.16;;;12.48;100.00
20752;BME280;10536;51.582;5.016;2022-09-29T08:18:50;100191.78;;;12.94;100.00
20752;BME280;10536;51.582;5.016;2022-09-29T08:23:50;100197.28;;;13.38;100.00
20752;BME280;10536;51.582;5.016;2022-09-29T08:28:51;100196.84;;;13.50;100.00
20752;BME280;10536;51.582;5.016;2022-09-29T08:33:51;100197.72;;;13.49;100.00
20752;BME280;10536;51.582;5.016;2022-09-29T08:38:53;100203.91;;;13.70;100.00
20752;BME280;10536;51.582;5.016;2022-09-29T08:44:00;100208.75;;;14.05;100.00
20752;BME280;10536;51.582;5.016;2022-09-29T08:49:09;100210.19;;;14.35;100.00
20752;BME280;10536;51.582;5.016;2022-09-29T08:54:32;100215.81;;;14.47;100.00
20752;BME280;10536;51.582;5.016;2022-09-29T08:59:33;100215.25;;;14.62;100.00
20752;BME280;10536;51.582;5.016;2022-09-29T09:20:32;100228.19;;;15.28;100.00
20752;BME280;10536;51.582;5.016;2022-09-29T09:25:56;100230.06;;;15.45;100.00
20752;BME280;10536;51.582;5.016;2022-09-29T09:36:16;100237.56;;;15.73;100.00
20752;BME280;10536;51.582;5.016;2022-09-29T09:41:20;100232.53;;;16.08;100.00
20752;BME280;10536;51.582;5.016;2022-09-29T09:46:44;100235.28;;;16.43;100.00
20752;BME280;10536;51.582;5.016;2022-09-29T09:51:55;100227.53;;;16.42;100.00
20752;BME280;10536;51.582;5.016;2022-09-29T09:57:21;100237.81;;;16.07;100.00
20752;BME280;10536;51.582;5.016;2022-09-29T10:02:26;100246.09;;;15.97;100.00
20752;BME280;10536;51.582;5.016;2022-09-29T10:07:29;100254.19;;;16.10;100.00
20752;BME280;10536;51.582;5.016;2022-09-29T10:12:30;100245.59;;;16.08;100.00
20752;BME280;10536;51.582;5.016;2022-09-29T10:17:38;100246.78;;;16.01;100.00
20752;BME280;10536;51.582;5.016;2022-09-29T10:22:39;100248.22;;;16.27;100.00
20752;BME280;10536;51.582;5.016;2022-09-29T10:27:47;100252.84;;;16.39;100.00
20752;BME280;10536;51.582;5.016;2022-09-29T10:32:57;100256.66;;;16.51;100.00
20752;BME280;10536;51.582;5.016;2022-09-29T10:38:01;100266.09;;;16.73;100.00
20752;BME280;10536;51.582;5.016;2022-09-29T10:43:40;100265.16;;;16.93;100.00
20752;BME280;10536;51.582;5.016;2022-09-29T10:48:41;100256.66;;;17.07;100.00
20752;BME280;10536;51.582;5.016;2022-09-29T10:53:42;100255.75;;;17.08;100.00
20752;BME280;10536;51.582;5.016;2022-09-29T10:58:50;100264.75;;;17.20;100.00
20752;BME280;10536;51.582;5.016;2022-09-29T11:03:57;100265.75;;;17.17;100.00
20752;BME280;10536;51.582;5.016;2022-09-29T11:09:24;100270.72;;;17.04;100.00
20752;BME280;10536;51.582;5.016;2022-09-29T11:14:40;100272.94;;;16.94;100.00
20752;BME280;10536;51.582;5.016;2022-09-29T11:19:41;100272.66;;;16.63;100.00
20752;BME280;10536;51.582;5.016;2022-09-29T11:24:50;100270.97;;;16.62;100.00
20752;BME280;10536;51.582;5.016;2022-09-29T11:30:08;100281.81;;;16.71;100.00
20752;BME280;10536;51.582;5.016;2022-09-29T11:40:32;100277.72;;;16.66;100.00
20752;BME280;10536;51.582;5.016;2022-09-29T11:45:44;100273.84;;;16.74;100.00
20752;BME280;10536;51.582;5.016;2022-09-29T12:01:38;100285.31;;;16.72;100.00
20752;BME280;10536;51.582;5.016;2022-09-29T12:06:55;100290.88;;;16.83;100.00
20752;BME280;10536;51.582;5.016;2022-09-29T12:17:28;100296.31;;;16.59;100.00
20752;BME280;10536;51.582;5.016;2022-09-29T12:22:32;100294.19;;;17.23;100.00
20752;BME280;10536;51.582;5.016;2022-09-29T12:27:36;100293.94;;;17.10;100.00
20752;BME280;10536;51.582;5.016;2022-09-29T12:32:45;100287.72;;;17.65;100.00
20752;BME280;10536;51.582;5.016;2022-09-29T12:37:56;100288.84;;;17.77;100.00
20752;BME280;10536;51.582;5.016;2022-09-29T12:43:12;100280.63;;;18.18;100.00
20752;BME280;10536;51.582;5.016;2022-09-29T12:53:29;100283.53;;;18.29;100.00
20752;BME280;10536;51.582;5.016;2022-09-29T12:58:59;100282.44;;;18.33;100.00
20752;BME280;10536;51.582;5.016;2022-09-29T13:10:04;100290.22;;;18.67;100.00
20752;BME280;10536;51.582;5.016;2022-09-29T13:16:06;100284.13;;;18.98;100.00
20752;BME280;10536;51.582;5.016;2022-09-29T13:31:50;100300.97;;;19.10;100.00
20752;BME280;10536;51.582;5.016;2022-09-29T13:36:53;100305.84;;;19.16;100.00
20752;BME280;10536;51.582;5.016;2022-09-29T13:42:43;100304.47;;;19.25;100.00
20752;BME280;10536;51.582;5.016;2022-09-29T13:47:49;100306.00;;;19.13;100.00
20752;BME280;10536;51.582;5.016;2022-09-29T14:03:43;100313.28;;;19.08;100.00
20752;BME280;10536;51.582;5.016;2022-09-29T14:09:12;100318.44;;;19.09;100.00
20752;BME280;10536;51.582;5.016;2022-09-29T14:29:40;100338.41;;;18.96;100.00
20752;BME280;10536;51.582;5.016;2022-09-29T14:34:43;100345.94;;;18.86;100.00
20752;BME280;10536;51.582;5.016;2022-09-29T14:39:48;100351.44;;;18.82;100.00
20752;BME280;10536;51.582;5.016;2022-09-29T14:45:07;100358.53;;;18.96;100.00
20752;BME280;10536;51.582;5.016;2022-09-29T14:55:57;100357.44;;;18.84;100.00
20752;BME280;10536;51.582;5.016;2022-09-29T15:01:10;100365.22;;;18.85;100.00
20752;BME280;10536;51.582;5.016;2022-09-29T15:06:20;100368.69;;;18.86;100.00
20752;BME280;10536;51.582;5.016;2022-09-29T15:11:42;100369.38;;;18.56;100.00
20752;BME280;10536;51.582;5.016;2022-09-29T15:27:02;100378.41;;;18.84;100.00
20752;BME280;10536;51.582;5.016;2022-09-29T15:32:20;100382.16;;;18.78;100.00
20752;BME280;10536;51.582;5.016;2022-09-29T15:37:21;100386.50;;;18.79;100.00
20752;BME280;10536;51.582;5.016;2022-09-29T15:42:22;100397.44;;;18.87;100.00
20752;BME280;10536;51.582;5.016;2022-09-29T15:47:41;100393.75;;;18.74;100.00
20752;BME280;10536;51.582;5.016;2022-09-29T15:52:41;100404.13;;;18.60;100.00
20752;BME280;10536;51.582;5.016;2022-09-29T15:57:44;100408.69;;;18.56;100.00
20752;BME280;10536;51.582;5.016;2022-09-29T16:03:14;100408.28;;;18.64;100.00
20752;BME280;10536;51.582;5.016;2022-09-29T16:08:18;100426.78;;;18.43;100.00
20752;BME280;10536;51.582;5.016;2022-09-29T16:13:28;100430.63;;;18.20;100.00
20752;BME280;10536;51.582;5.016;2022-09-29T16:18:42;100437.03;;;18.14;100.00
20752;BME280;10536;51.582;5.016;2022-09-29T16:23:48;100447.81;;;18.08;100.00
20752;BME280;10536;51.582;5.016;2022-09-29T16:39:25;100459.41;;;17.85;100.00
20752;BME280;10536;51.582;5.016;2022-09-29T16:49:55;100471.56;;;17.86;100.00
20752;BME280;10536;51.582;5.016;2022-09-29T16:55:28;100478.13;;;17.95;100.00
20752;BME280;10536;51.582;5.016;2022-09-29T17:00:28;100479.50;;;17.66;100.00
20752;BME280;10536;51.582;5.016;2022-09-29T17:05:34;100489.25;;;17.62;100.00
20752;BME280;10536;51.582;5.016;2022-09-29T17:10:36;100491.53;;;17.51;100.00
20752;BME280;10536;51.582;5.016;2022-09-29T17:15:37;100496.91;;;17.48;100.00
20752;BME280;10536;51.582;5.016;2022-09-29T17:20:39;100499.81;;;17.04;100.00
20752;BME280;10536;51.582;5.016;2022-09-29T17:25:43;100500.22;;;16.74;100.00
20752;BME280;10536;51.582;5.016;2022-09-29T17:30:45;100515.13;;;16.51;100.00
20752;BME280;10536;51.582;5.016;2022-09-29T17:35:49;100518.53;;;16.11;100.00
20752;BME280;10536;51.582;5.016;2022-09-29T17:40:59;100528.75;;;15.95;100.00
20752;BME280;10536;51.582;5.016;2022-09-29T17:46:04;100527.88;;;15.72;100.00
20752;BME280;10536;51.582;5.016;2022-09-29T17:51:11;100532.56;;;15.40;100.00
20752;BME280;10536;51.582;5.016;2022-09-29T17:56:30;100535.72;;;15.72;100.00
20752;BME280;10536;51.582;5.016;2022-09-29T18:01:37;100538.00;;;15.34;100.00
20752;BME280;10536;51.582;5.016;2022-09-29T18:06:37;100545.66;;;15.39;100.00
20752;BME280;10536;51.582;5.016;2022-09-29T18:11:37;100550.25;;;15.09;100.00
20752;BME280;10536;51.582;5.016;2022-09-29T18:16:39;100562.00;;;14.95;100.00
20752;BME280;10536;51.582;5.016;2022-09-29T18:21:42;100558.34;;;14.49;100.00
20752;BME280;10536;51.582;5.016;2022-09-29T18:26:44;100572.47;;;14.42;100.00
20752;BME280;10536;51.582;5.016;2022-09-29T18:31:44;100575.41;;;14.31;100.00
20752;BME280;10536;51.582;5.016;2022-09-29T18:36:45;100585.47;;;14.15;100.00
20752;BME280;10536;51.582;5.016;2022-09-29T18:41:45;100590.97;;;14.06;100.00
20752;BME280;10536;51.582;5.016;2022-09-29T18:46:46;100600.94;;;13.92;100.00
20752;BME280;10536;51.582;5.016;2022-09-29T18:51:46;100607.75;;;13.66;100.00
20752;BME280;10536;51.582;5.016;2022-09-29T18:56:51;100610.13;;;13.74;100.00
20752;BME280;10536;51.582;5.016;2022-09-29T19:01:51;100615.28;;;13.46;100.00
20752;BME280;10536;51.582;5.016;2022-09-29T19:06:52;100626.13;;;13.60;100.00
20752;BME280;10536;51.582;5.016;2022-09-29T19:11:52;100632.28;;;13.24;100.00
20752;BME280;10536;51.582;5.016;2022-09-29T19:16:52;100629.09;;;13.48;100.00
20752;BME280;10536;51.582;5.016;2022-09-29T19:21:54;100643.28;;;13.36;100.00
20752;BME280;10536;51.582;5.016;2022-09-29T19:26:54;100641.00;;;13.22;100.00
20752;BME280;10536;51.582;5.016;2022-09-29T19:31:55;100640.97;;;13.23;100.00
20752;BME280;10536;51.582;5.016;2022-09-29T19:36:55;100654.34;;;13.08;100.00
20752;BME280;10536;51.582;5.016;2022-09-29T19:41:57;100658.19;;;12.95;100.00
20752;BME280;10536;51.582;5.016;2022-09-29T19:46:58;100672.59;;;12.71;100.00
20752;BME280;10536;51.582;5.016;2022-09-29T19:52:03;100679.19;;;12.84;100.00
20752;BME280;10536;51.582;5.016;2022-09-29T19:57:09;100693.38;;;12.69;100.00
20752;BME280;10536;51.582;5.016;2022-09-29T20:02:12;100689.34;;;12.93;100.00
20752;BME280;10536;51.582;5.016;2022-09-29T20:07:13;100701.31;;;12.63;100.00
20752;BME280;10536;51.582;5.016;2022-09-29T20:12:13;100702.41;;;12.54;100.00
20752;BME280;10536;51.582;5.016;2022-09-29T20:17:14;100703.31;;;12.52;100.00
20752;BME280;10536;51.582;5.016;2022-09-29T20:22:14;100717.19;;;12.51;100.00
20752;BME280;10536;51.582;5.016;2022-09-29T20:27:15;100721.47;;;12.52;100.00
20752;BME280;10536;51.582;5.016;2022-09-29T20:32:16;100727.41;;;12.57;100.00
20752;BME280;10536;51.582;5.016;2022-09-29T20:37:18;100727.72;;;12.43;100.00
20752;BME280;10536;51.582;5.016;2022-09-29T20:42:18;100731.28;;;12.39;100.00
20752;BME280;10536;51.582;5.016;2022-09-29T20:47:19;100738.69;;;12.17;100.00
20752;BME280;10536;51.582;5.016;2022-09-29T20:52:19;100742.41;;;12.03;100.00
20752;BME280;10536;51.582;5.016;2022-09-29T20:57:20;100753.19;;;12.24;100.00
20752;BME280;10536;51.582;5.016;2022-09-29T21:02:20;100756.88;;;12.14;100.00
20752;BME280;10536;51.582;5.016;2022-09-29T21:07:21;100763.56;;;12.25;100.00
20752;BME280;10536;51.582;5.016;2022-09-29T21:12:37;100765.59;;;12.11;100.00
20752;BME280;10536;51.582;5.016;2022-09-29T21:17:37;100773.25;;;12.16;100.00
20752;BME280;10536;51.582;5.016;2022-09-29T21:22:38;100778.44;;;12.16;100.00
20752;BME280;10536;51.582;5.016;2022-09-29T21:27:38;100781.66;;;12.29;100.00
20752;BME280;10536;51.582;5.016;2022-09-29T21:32:39;100793.97;;;12.17;100.00
20752;BME280;10536;51.582;5.016;2022-09-29T21:37:39;100786.31;;;12.11;100.00
20752;BME280;10536;51.582;5.016;2022-09-29T21:42:40;100792.22;;;12.18;100.00
20752;BME280;10536;51.582;5.016;2022-09-29T21:47:40;100806.03;;;12.18;100.00
20752;BME280;10536;51.582;5.016;2022-09-29T21:52:59;100793.31;;;12.06;100.00
20752;BME280;10536;51.582;5.016;2022-09-29T21:57:59;100790.69;;;12.09;100.00
20752;BME280;10536;51.582;5.016;2022-09-29T22:03:00;100794.94;;;12.13;100.00
20752;BME280;10536;51.582;5.016;2022-09-29T22:08:00;100799.59;;;11.96;100.00
20752;BME280;10536;51.582;5.016;2022-09-29T22:13:01;100795.47;;;11.82;100.00
20752;BME280;10536;51.582;5.016;2022-09-29T22:18:01;100793.81;;;11.78;100.00
20752;BME280;10536;51.582;5.016;2022-09-29T22:23:03;100804.00;;;11.89;100.00
20752;BME280;10536;51.582;5.016;2022-09-29T22:28:04;100808.63;;;11.72;100.00
20752;BME280;10536;51.582;5.016;2022-09-29T22:33:04;100814.78;;;11.66;100.00
20752;BME280;10536;51.582;5.016;2022-09-29T22:38:06;100820.38;;;11.91;100.00
20752;BME280;10536;51.582;5.016;2022-09-29T22:43:07;100811.59;;;12.00;100.00
20752;BME280;10536;51.582;5.016;2022-09-29T22:48:08;100814.72;;;11.69;100.00
20752;BME280;10536;51.582;5.016;2022-09-29T22:53:08;100809.69;;;11.60;100.00
20752;BME280;10536;51.582;5.016;2022-09-29T22:58:13;100808.22;;;11.46;100.00
20752;BME280;10536;51.582;5.016;2022-09-29T23:03:14;100814.03;;;11.59;100.00
20752;BME280;10536;51.582;5.016;2022-09-29T23:08:15;100821.22;;;11.42;100.00
20752;BME280;10536;51.582;5.016;2022-09-29T23:13:17;100821.19;;;11.45;100.00
20752;BME280;10536;51.582;5.016;2022-09-29T23:18:20;100826.63;;;11.30;100.00
20752;BME280;10536;51.582;5.016;2022-09-29T23:23:20;100835.53;;;11.12;100.00
20752;BME280;10536;51.582;5.016;2022-09-29T23:28:21;100830.28;;;11.15;100.00
20752;BME280;10536;51.582;5.016;2022-09-29T23:33:22;100826.63;;;10.71;100.00
20752;BME280;10536;51.582;5.016;2022-09-29T23:38:22;100824.16;;;10.61;100.00
20752;BME280;10536;51.582;5.016;2022-09-29T23:43:41;100820.66;;;10.65;100.00
20752;BME280;10536;51.582;5.016;2022-09-29T23:48:41;100820.25;;;10.93;100.00
20752;BME280;10536;51.582;5.016;2022-09-29T23:53:42;100822.00;;;10.91;100.00
20752;BME280;10536;51.582;5.016;2022-09-29T23:58:42;100832.22;;;11.02;100.00
